Time;durP1;ratioP1;P1;durP2;ratioP2;P2;SDS_P1;SDS_P2;PMS_P1;PMS_P2;Temp;Humidity;BMP_temperature;BMP_pressure;BME280_temperature;BME280_humidity;BME280_pressure;Samples;Min_cycle;Max_cycle;Signal;HPM_P1;HPM_P2
2023/09/05 00:01:13;;;;;;;1.85;1.00;;;18.50;99.90;;;;;;4994703;28;20057;-73
2023/09/05 00:03:40;;;;;;;1.65;0.70;;;18.40;99.90;;;;;;4994770;28;20703;-73
2023/09/05 00:06:10;;;;;;;1.40;0.77;;;18.40;99.90;;;;;;4994143;28;20041;-72
2023/09/05 00:08:39;;;;;;;1.20;0.60;;;18.40;99.90;;;;;;5011505;28;20040;-72
2023/09/05 00:11:07;;;;;;;1.52;0.68;;;18.40;99.90;;;;;;5010820;28;20033;-71
2023/09/05 00:13:33;;;;;;;1.00;0.60;;;18.40;99.90;;;;;;5008713;28;20041;-73
2023/09/05 00:15:59;;;;;;;2.17;0.65;;;18.40;99.90;;;;;;5008661;28;20038;-73
2023/09/05 00:18:26;;;;;;;1.02;0.63;;;18.40;99.90;;;;;;4996709;28;20038;-74
2023/09/05 00:20:55;;;;;;;1.55;0.57;;;18.40;99.90;;;;;;4978070;28;20057;-70
2023/09/05 00:23:24;;;;;;;1.27;0.65;;;18.40;99.90;;;;;;4997406;28;20045;-72
2023/09/05 00:25:51;;;;;;;0.95;0.55;;;18.40;99.90;;;;;;4996104;28;20682;-73
2023/09/05 00:28:19;;;;;;;1.00;0.50;;;18.30;99.90;;;;;;5026992;28;20036;-72
2023/09/05 00:30:46;;;;;;;1.38;0.52;;;18.30;99.90;;;;;;4976265;28;20030;-73
2023/09/05 00:33:13;;;;;;;1.33;0.60;;;18.20;99.90;;;;;;4976785;28;20041;-72
2023/09/05 00:35:40;;;;;;;1.20;0.65;;;18.20;99.90;;;;;;4994571;28;20029;-74
2023/09/05 00:38:06;;;;;;;1.65;0.70;;;18.10;99.90;;;;;;4996965;28;20054;-72
2023/09/05 00:40:33;;;;;;;1.70;1.00;;;18.10;99.90;;;;;;4996041;28;20061;-72
2023/09/05 00:42:59;;;;;;;2.33;0.60;;;18.00;99.90;;;;;;4994236;28;20037;-73
2023/09/05 00:45:26;;;;;;;2.75;1.00;;;18.00;99.90;;;;;;4995551;28;20060;-73
2023/09/05 00:47:53;;;;;;;1.40;0.60;;;18.00;99.90;;;;;;5029578;28;20138;-72
2023/09/05 00:50:21;;;;;;;1.65;0.85;;;18.00;99.90;;;;;;4994039;28;20045;-73
2023/09/05 00:52:48;;;;;;;1.15;0.70;;;17.90;99.90;;;;;;5028226;28;20026;-73
2023/09/05 00:55:15;;;;;;;1.35;0.95;;;17.80;99.90;;;;;;4997789;28;20033;-74
2023/09/05 00:57:42;;;;;;;1.10;0.80;;;17.80;99.90;;;;;;4977686;28;20056;-73
2023/09/05 01:00:09;;;;;;;2.95;1.00;;;17.80;99.90;;;;;;4994056;28;20038;-73
2023/09/05 01:02:36;;;;;;;3.63;1.15;;;17.80;99.90;;;;;;4976627;28;20037;-74
2023/09/05 01:05:06;;;;;;;2.17;0.95;;;17.70;99.90;;;;;;4993568;28;20037;-73
2023/09/05 01:08:03;;;;;;;1.27;0.80;;;17.70;99.90;;;;;;5012458;28;20037;-73
2023/09/05 01:10:42;;;;;;;1.70;1.10;;;17.60;99.90;;;;;;4955305;28;20216;-73
2023/09/05 01:13:10;;;;;;;1.60;1.05;;;17.60;99.90;;;;;;4993929;28;20366;-73
2023/09/05 01:15:36;;;;;;;1.25;0.77;;;17.50;99.90;;;;;;4978977;28;20036;-73
2023/09/05 01:18:03;;;;;;;1.70;0.93;;;17.50;99.90;;;;;;4995463;28;20034;-73
2023/09/05 01:20:56;;;;;;;1.40;1.00;;;17.40;99.90;;;;;;4994080;28;20048;-74
2023/09/05 01:23:30;;;;;;;2.10;1.20;;;17.50;99.90;;;;;;4963618;28;20052;-72
2023/09/05 01:25:59;;;;;;;1.80;1.10;;;17.40;99.90;;;;;;5008597;28;20516;-74
2023/09/05 01:28:27;;;;;;;1.67;1.27;;;17.30;99.90;;;;;;5009282;28;20053;-72
2023/09/05 01:30:54;;;;;;;2.05;1.20;;;17.30;99.90;;;;;;5006079;28;20042;-72
2023/09/05 01:33:20;;;;;;;1.80;0.90;;;17.20;99.90;;;;;;5010000;28;20780;-73
2023/09/05 01:35:47;;;;;;;1.67;1.00;;;17.20;99.90;;;;;;5007154;28;20536;-73
2023/09/05 01:38:14;;;;;;;1.73;1.10;;;17.20;99.90;;;;;;5008996;28;20042;-73
2023/09/05 01:40:42;;;;;;;1.42;0.90;;;17.10;99.90;;;;;;5009225;28;20060;-73
2023/09/05 01:43:08;;;;;;;2.15;1.00;;;17.10;99.90;;;;;;5009623;28;20045;-73
2023/09/05 01:45:34;;;;;;;1.60;1.00;;;17.10;99.90;;;;;;4994331;28;20052;-73
2023/09/05 01:48:01;;;;;;;1.33;0.70;;;17.00;99.90;;;;;;5009343;28;21151;-73
2023/09/05 01:50:32;;;;;;;1.92;1.10;;;17.00;99.90;;;;;;5009396;28;20060;-73
2023/09/05 01:52:59;;;;;;;1.35;0.75;;;17.00;99.90;;;;;;4992470;28;20029;-73
2023/09/05 01:55:26;;;;;;;1.50;0.70;;;16.90;99.90;;;;;;5010541;28;20049;-72
2023/09/05 01:57:53;;;;;;;1.10;0.70;;;16.90;99.90;;;;;;4994050;28;20052;-73
2023/09/05 02:00:19;;;;;;;1.83;0.73;;;16.80;99.90;;;;;;5020967;28;20041;-73
2023/09/05 02:02:46;;;;;;;2.00;0.98;;;16.80;99.90;;;;;;5024797;28;20026;-73
2023/09/05 02:05:12;;;;;;;1.25;0.65;;;16.80;99.90;;;;;;5009949;28;21301;-73
2023/09/05 02:07:39;;;;;;;1.25;0.70;;;16.80;99.90;;;;;;4977510;28;20030;-73
2023/09/05 02:10:06;;;;;;;1.10;0.70;;;16.70;99.90;;;;;;5010990;28;20033;-73
2023/09/05 02:12:35;;;;;;;2.05;0.75;;;16.70;99.90;;;;;;4980979;28;20456;-73
2023/09/05 02:15:02;;;;;;;1.65;1.10;;;16.70;99.90;;;;;;5030598;28;20038;-73
2023/09/05 02:17:30;;;;;;;1.60;1.00;;;16.80;99.90;;;;;;5003081;28;20029;-72
2023/09/05 02:19:57;;;;;;;1.70;1.08;;;16.80;99.90;;;;;;5030750;28;20045;-73
2023/09/05 02:22:24;;;;;;;1.50;0.80;;;16.80;99.90;;;;;;4998047;28;20042;-73
2023/09/05 02:24:50;;;;;;;1.60;0.75;;;16.90;99.90;;;;;;4982024;28;20034;-73
2023/09/05 02:27:17;;;;;;;1.13;0.70;;;16.80;99.90;;;;;;5012903;28;20409;-72
2023/09/05 02:29:49;;;;;;;2.45;1.00;;;16.80;99.90;;;;;;4997931;28;20041;-73
2023/09/05 02:32:18;;;;;;;2.22;0.88;;;16.80;99.90;;;;;;5011788;28;20061;-75
2023/09/05 02:34:50;;;;;;;2.42;1.30;;;16.90;99.90;;;;;;4982118;28;20034;-73
2023/09/05 02:37:17;;;;;;;1.75;0.80;;;16.90;99.90;;;;;;4998333;28;20045;-73
2023/09/05 02:39:43;;;;;;;2.60;0.90;;;16.90;99.90;;;;;;5014659;28;20539;-74
2023/09/05 02:42:10;;;;;;;1.73;1.35;;;17.00;99.90;;;;;;5030197;28;20025;-75
2023/09/05 02:44:36;;;;;;;1.65;0.90;;;17.00;99.90;;;;;;5028014;28;20045;-73
2023/09/05 02:47:03;;;;;;;3.28;0.98;;;16.90;99.90;;;;;;4999135;28;20030;-74
2023/09/05 02:49:30;;;;;;;2.13;0.60;;;16.90;99.90;;;;;;5017378;28;20487;-74
2023/09/05 02:51:57;;;;;;;2.45;0.95;;;17.00;99.90;;;;;;4999464;28;20412;-73
2023/09/05 02:54:24;;;;;;;1.20;0.77;;;16.90;99.90;;;;;;4998341;28;20034;-73
2023/09/05 02:56:50;;;;;;;2.88;0.70;;;16.90;99.90;;;;;;5027761;28;20075;-74
2023/09/05 02:59:17;;;;;;;1.13;0.70;;;16.90;99.90;;;;;;4998198;28;20034;-74
2023/09/05 03:01:43;;;;;;;1.40;0.70;;;16.90;99.90;;;;;;5012756;28;20033;-73
2023/09/05 03:04:10;;;;;;;1.88;0.68;;;16.90;99.90;;;;;;4998173;28;20251;-72
2023/09/05 03:06:36;;;;;;;1.17;0.70;;;16.80;99.90;;;;;;5032892;28;20021;-74
2023/09/05 03:09:03;;;;;;;1.20;0.70;;;16.80;99.90;;;;;;4999386;28;20358;-74
2023/09/05 03:11:29;;;;;;;1.65;0.80;;;16.80;99.90;;;;;;4995423;28;20061;-73
2023/09/05 03:13:56;;;;;;;1.48;0.60;;;16.80;99.90;;;;;;5015948;28;20059;-72
2023/09/05 03:16:23;;;;;;;1.08;0.50;;;16.80;99.90;;;;;;4983182;28;20042;-72
2023/09/05 03:18:50;;;;;;;1.70;0.70;;;16.80;99.90;;;;;;4983205;28;20040;-73
2023/09/05 03:21:17;;;;;;;2.67;0.65;;;16.80;99.90;;;;;;4999111;28;20161;-73
2023/09/05 03:23:44;;;;;;;1.85;0.98;;;16.70;99.90;;;;;;5014690;28;20034;-72
2023/09/05 03:26:11;;;;;;;0.90;0.60;;;16.70;99.90;;;;;;4981420;28;20053;-73
2023/09/05 03:28:43;;;;;;;1.83;0.90;;;16.80;99.90;;;;;;5031089;28;20041;-73
2023/09/05 03:31:13;;;;;;;1.40;0.80;;;16.80;99.90;;;;;;4997270;28;20022;-73
2023/09/05 03:33:40;;;;;;;1.88;0.80;;;16.70;99.90;;;;;;4981491;28;20037;-73
2023/09/05 03:36:08;;;;;;;1.20;0.65;;;16.80;99.90;;;;;;4982212;28;20037;-73
2023/09/05 03:38:35;;;;;;;1.90;1.00;;;16.80;99.90;;;;;;5030135;28;20029;-74
2023/09/05 03:41:01;;;;;;;1.08;0.63;;;16.80;99.90;;;;;;5009922;28;20030;-73
2023/09/05 03:43:27;;;;;;;1.25;0.77;;;16.90;99.90;;;;;;4983117;28;20029;-72
2023/09/05 03:45:54;;;;;;;1.92;1.00;;;16.90;99.90;;;;;;5000101;28;20049;-73
2023/09/05 03:48:20;;;;;;;1.70;0.98;;;16.90;99.90;;;;;;4999987;28;20044;-73
2023/09/05 03:50:47;;;;;;;2.25;0.85;;;16.90;99.90;;;;;;5000144;28;20033;-73
2023/09/05 03:53:13;;;;;;;1.40;0.80;;;16.90;99.90;;;;;;4998700;28;20095;-73
2023/09/05 03:55:39;;;;;;;1.67;0.85;;;16.90;99.90;;;;;;4997345;28;20037;-72
2023/09/05 03:58:07;;;;;;;1.38;0.57;;;16.90;99.90;;;;;;5000058;28;20036;-73
2023/09/05 04:00:34;;;;;;;1.60;0.80;;;16.90;99.90;;;;;;5030820;28;20042;-73
2023/09/05 04:03:04;;;;;;;1.30;0.80;;;16.90;99.90;;;;;;5029991;28;20053;-73
2023/09/05 04:05:33;;;;;;;1.98;0.98;;;16.90;99.90;;;;;;5030296;28;20065;-73
2023/09/05 04:08:00;;;;;;;2.95;1.00;;;16.90;99.90;;;;;;4998718;28;20057;-73
2023/09/05 04:10:26;;;;;;;3.97;1.63;;;16.90;99.90;;;;;;5014445;28;20025;-73
2023/09/05 04:12:52;;;;;;;1.60;1.30;;;16.90;99.90;;;;;;5013752;28;20041;-73
2023/09/05 04:15:21;;;;;;;2.15;1.00;;;16.90;99.90;;;;;;5014740;28;20033;-73
2023/09/05 04:17:50;;;;;;;1.80;0.73;;;16.90;99.90;;;;;;5001491;28;20029;-73
2023/09/05 04:20:18;;;;;;;1.20;0.82;;;16.90;99.90;;;;;;5014623;28;20037;-73
2023/09/05 04:22:44;;;;;;;3.25;1.00;;;16.80;99.90;;;;;;4997106;28;20493;-73
2023/09/05 04:25:11;;;;;;;1.85;0.88;;;16.80;99.90;;;;;;4979735;28;20091;-74
2023/09/05 04:27:38;;;;;;;1.58;1.15;;;16.80;99.90;;;;;;4997407;28;20029;-72
2023/09/05 04:30:06;;;;;;;2.05;1.40;;;16.80;99.90;;;;;;5029310;28;20037;-72
2023/09/05 04:32:34;;;;;;;2.45;1.58;;;16.80;99.90;;;;;;5027407;28;20460;-73
2023/09/05 04:35:03;;;;;;;2.05;1.23;;;16.90;99.90;;;;;;4981814;28;20650;-73
2023/09/05 04:37:29;;;;;;;2.20;1.15;;;16.90;99.90;;;;;;4997582;28;20037;-72
2023/09/05 04:40:00;;;;;;;1.42;0.93;;;16.80;99.90;;;;;;4983724;28;20029;-72
2023/09/05 04:42:27;;;;;;;2.22;1.70;;;16.80;99.90;;;;;;5014167;28;20045;-73
2023/09/05 04:44:53;;;;;;;2.83;1.65;;;16.80;99.90;;;;;;5030820;28;20046;-73
2023/09/05 04:47:21;;;;;;;2.05;1.00;;;16.80;99.90;;;;;;4980262;28;20030;-73
2023/09/05 04:49:52;;;;;;;2.55;1.23;;;16.80;99.90;;;;;;4995694;28;20044;-73
2023/09/05 04:52:20;;;;;;;2.28;1.33;;;16.80;99.90;;;;;;4996165;28;20022;-73
2023/09/05 04:54:47;;;;;;;2.30;1.20;;;16.80;99.90;;;;;;4995706;28;20033;-73
2023/09/05 04:57:14;;;;;;;2.35;1.23;;;16.80;99.90;;;;;;4980644;28;20241;-74
2023/09/05 04:59:43;;;;;;;4.55;2.08;;;16.80;99.90;;;;;;4995846;28;20028;-74
2023/09/05 05:02:10;;;;;;;2.08;1.27;;;16.80;99.90;;;;;;4979566;28;20040;-76
2023/09/05 05:04:37;;;;;;;4.28;2.08;;;16.80;99.90;;;;;;5028278;28;20034;-74
2023/09/05 05:07:03;;;;;;;3.13;1.77;;;16.80;99.90;;;;;;5029252;28;20038;-74
2023/09/05 05:09:30;;;;;;;3.17;1.67;;;16.80;99.90;;;;;;5012468;28;20038;-74
2023/09/05 05:11:56;;;;;;;3.47;1.38;;;16.90;99.90;;;;;;4996349;28;20479;-74
2023/09/05 05:14:23;;;;;;;2.20;1.85;;;16.90;99.90;;;;;;4996231;28;20030;-72
2023/09/05 05:16:50;;;;;;;1.45;1.00;;;16.90;99.90;;;;;;5012166;28;20038;-74
2023/09/05 05:19:16;;;;;;;2.45;1.70;;;16.90;99.90;;;;;;4994671;28;20046;-74
2023/09/05 05:21:42;;;;;;;4.38;3.47;;;16.90;99.90;;;;;;4993731;28;20531;-75
2023/09/05 05:24:09;;;;;;;4.15;2.60;;;16.90;99.90;;;;;;4978606;28;20034;-73
2023/09/05 05:26:35;;;;;;;2.45;1.55;;;16.90;99.90;;;;;;4995120;28;20321;-74
2023/09/05 05:29:02;;;;;;;2.83;1.95;;;16.90;99.90;;;;;;4995908;28;20041;-74
2023/09/05 05:31:29;;;;;;;4.80;1.60;;;17.00;99.90;;;;;;4993841;28;21034;-75
2023/09/05 05:33:55;;;;;;;2.10;1.45;;;17.00;99.90;;;;;;4995082;28;20053;-75
2023/09/05 05:36:21;;;;;;;3.95;2.25;;;17.00;99.90;;;;;;4979495;28;20033;-73
2023/09/05 05:38:48;;;;;;;5.68;3.08;;;17.10;99.90;;;;;;4995589;28;20041;-73
2023/09/05 05:41:14;;;;;;;3.40;2.00;;;17.00;99.90;;;;;;5008547;28;20034;-74
2023/09/05 05:43:41;;;;;;;3.55;2.00;;;17.10;99.90;;;;;;4996543;28;20030;-73
2023/09/05 05:46:09;;;;;;;1.73;1.20;;;17.00;99.90;;;;;;4996439;28;20026;-72
2023/09/05 05:48:36;;;;;;;1.80;1.33;;;17.10;99.90;;;;;;4999225;28;20052;-73
2023/09/05 05:51:02;;;;;;;1.58;1.13;;;17.10;99.90;;;;;;4982512;28;20033;-73
2023/09/05 05:53:29;;;;;;;1.38;0.80;;;17.10;99.90;;;;;;5032493;28;20030;-73
2023/09/05 05:55:55;;;;;;;1.77;1.00;;;17.10;99.90;;;;;;5000655;28;20049;-73
2023/09/05 05:58:22;;;;;;;1.50;0.90;;;17.20;99.90;;;;;;5016727;28;20037;-73
2023/09/05 06:00:51;;;;;;;2.20;1.00;;;17.30;99.90;;;;;;4983411;28;20042;-74
2023/09/05 06:03:18;;;;;;;1.75;0.80;;;17.40;99.90;;;;;;4981828;28;20508;-74
2023/09/05 06:05:45;;;;;;;1.42;0.80;;;17.50;99.90;;;;;;4983070;28;20033;-74
2023/09/05 06:08:11;;;;;;;1.50;1.05;;;17.60;99.90;;;;;;5001059;28;20026;-73
2023/09/05 06:10:38;;;;;;;2.10;1.00;;;17.80;99.90;;;;;;5016201;28;20033;-73
2023/09/05 06:13:05;;;;;;;1.77;0.98;;;18.00;99.90;;;;;;4999872;28;20405;-73
2023/09/05 06:15:33;;;;;;;1.60;0.98;;;18.20;99.90;;;;;;5000777;28;20025;-73
2023/09/05 06:18:04;;;;;;;2.42;0.90;;;18.30;99.90;;;;;;4999910;28;20034;-73
2023/09/05 06:20:34;;;;;;;1.55;1.00;;;18.50;99.90;;;;;;4980852;28;20428;-73
2023/09/05 06:23:01;;;;;;;1.17;0.90;;;18.70;99.90;;;;;;5014314;28;20389;-73
2023/09/05 06:25:28;;;;;;;2.15;0.70;;;18.90;99.90;;;;;;4998307;28;20050;-72
2023/09/05 06:27:54;;;;;;;2.00;1.10;;;19.00;99.90;;;;;;4983077;28;20054;-73
2023/09/05 06:30:22;;;;;;;1.85;0.90;;;19.10;99.90;;;;;;5009200;28;20034;-73
2023/09/05 06:32:49;;;;;;;2.38;1.25;;;19.20;99.90;;;;;;5012520;28;20034;-73
2023/09/05 06:35:16;;;;;;;3.30;1.17;;;19.40;99.90;;;;;;5015233;28;20026;-73
2023/09/05 06:37:43;;;;;;;1.90;1.08;;;19.50;99.90;;;;;;4984315;28;20041;-73
2023/09/05 06:40:15;;;;;;;1.58;1.00;;;19.60;99.90;;;;;;4982007;28;20034;-73
2023/09/05 06:42:42;;;;;;;1.30;0.80;;;19.70;99.90;;;;;;5031444;28;20033;-74
2023/09/05 06:45:10;;;;;;;2.92;2.28;;;19.80;99.90;;;;;;5000862;28;20042;-73
2023/09/05 06:47:37;;;;;;;3.63;1.80;;;19.90;99.90;;;;;;4997874;28;20042;-73
2023/09/05 06:50:05;;;;;;;43.42;36.40;;;20.00;99.90;;;;;;4980841;28;20044;-74
2023/09/05 06:52:32;;;;;;;13.38;11.48;;;20.10;99.90;;;;;;4997493;28;20520;-73
2023/09/05 06:54:58;;;;;;;7.38;5.78;;;20.20;99.90;;;;;;4999479;28;20030;-73
2023/09/05 06:57:28;;;;;;;3.85;2.92;;;20.30;99.90;;;;;;4982505;28;20034;-73
2023/09/05 06:59:54;;;;;;;2.83;1.80;;;20.40;99.90;;;;;;4999191;28;20033;-72
2023/09/05 07:02:21;;;;;;;1.60;1.00;;;20.50;99.90;;;;;;4998511;28;20042;-73
2023/09/05 07:04:48;;;;;;;2.38;1.10;;;20.60;99.90;;;;;;4999224;28;20041;-73
2023/09/05 07:07:15;;;;;;;1.48;0.95;;;20.70;99.90;;;;;;5015401;28;20038;-74
2023/09/05 07:09:41;;;;;;;2.72;0.80;;;20.80;99.90;;;;;;4999853;28;20037;-73
2023/09/05 07:12:08;;;;;;;2.15;0.80;;;20.90;99.90;;;;;;5029550;28;20429;-74
2023/09/05 07:14:34;;;;;;;3.83;3.20;;;21.00;99.90;;;;;;4982694;28;20500;-73
2023/09/05 07:17:01;;;;;;;7.65;6.40;;;21.10;99.90;;;;;;5029880;28;20060;-73
2023/09/05 07:19:29;;;;;;;7.82;5.40;;;21.30;99.90;;;;;;4998476;28;20033;-72
2023/09/05 07:21:56;;;;;;;4.95;4.15;;;21.40;99.90;;;;;;4995745;28;20101;-73
2023/09/05 07:24:22;;;;;;;3.50;2.72;;;21.50;99.90;;;;;;5013473;28;20045;-73
2023/09/05 07:26:48;;;;;;;2.90;1.67;;;21.60;99.90;;;;;;5013893;28;20425;-73
2023/09/05 07:29:15;;;;;;;4.00;1.45;;;21.70;99.90;;;;;;4998556;28;20064;-73
2023/09/05 07:31:42;;;;;;;3.35;0.90;;;21.80;99.90;;;;;;5030204;28;20030;-73
2023/09/05 07:34:08;;;;;;;3.55;1.02;;;21.80;99.90;;;;;;5014693;28;20038;-73
2023/09/05 07:36:36;;;;;;;2.28;0.90;;;21.90;99.90;;;;;;5014583;28;20037;-73
2023/09/05 07:39:04;;;;;;;4.15;1.50;;;21.90;99.90;;;;;;5014457;28;20040;-72
2023/09/05 07:41:32;;;;;;;1.75;1.10;;;22.00;99.90;;;;;;4997521;28;20033;-72
2023/09/05 07:43:59;;;;;;;1.75;0.90;;;22.10;99.90;;;;;;4997491;28;20044;-72
2023/09/05 07:46:26;;;;;;;2.50;1.20;;;22.20;99.90;;;;;;5014623;28;20056;-73
2023/09/05 07:48:52;;;;;;;2.03;1.05;;;22.20;99.90;;;;;;5008973;28;20041;-73
2023/09/05 07:51:22;;;;;;;1.60;0.80;;;22.30;99.90;;;;;;4995594;28;20133;-73
2023/09/05 07:54:03;;;;;;;1.65;1.00;;;22.40;99.90;;;;;;4995789;28;20029;-72
2023/09/05 07:56:30;;;;;;;2.83;1.38;;;22.60;99.90;;;;;;4997521;28;20026;-73
2023/09/05 07:58:56;;;;;;;2.53;0.80;;;22.60;99.90;;;;;;5029804;28;20057;-73
2023/09/05 08:01:23;;;;;;;1.67;1.08;;;22.70;99.90;;;;;;4978763;28;20041;-73
2023/09/05 08:03:50;;;;;;;3.10;0.98;;;22.90;99.90;;;;;;5027600;28;20045;-72
2023/09/05 08:06:17;;;;;;;1.90;0.90;;;23.00;99.90;;;;;;5012474;28;20389;-73
2023/09/05 08:08:43;;;;;;;1.55;0.90;;;23.10;99.90;;;;;;4995769;28;20033;-73
2023/09/05 08:11:10;;;;;;;3.53;0.82;;;23.20;99.90;;;;;;4995000;28;20033;-73
2023/09/05 08:13:36;;;;;;;3.67;0.90;;;23.30;99.90;;;;;;4997426;28;20046;-72
2023/09/05 08:16:03;;;;;;;1.95;0.90;;;23.40;99.90;;;;;;5012388;28;20037;-72
2023/09/05 08:18:30;;;;;;;1.77;0.73;;;23.60;99.90;;;;;;4980548;28;20025;-73
2023/09/05 08:20:59;;;;;;;1.27;0.70;;;23.70;99.90;;;;;;4995444;28;20606;-72
2023/09/05 08:23:26;;;;;;;2.05;0.98;;;23.80;99.90;;;;;;4997189;28;20033;-73
2023/09/05 08:25:56;;;;;;;2.47;1.00;;;23.90;99.90;;;;;;4995414;28;20046;-73
2023/09/05 08:28:22;;;;;;;2.63;1.05;;;24.00;99.90;;;;;;5013434;28;20456;-73
2023/09/05 08:30:49;;;;;;;2.08;0.75;;;24.10;99.90;;;;;;5011854;28;20045;-72
2023/09/05 08:33:15;;;;;;;1.17;0.70;;;24.20;99.90;;;;;;4979098;28;20034;-72
2023/09/05 08:35:41;;;;;;;1.42;0.75;;;24.30;99.90;;;;;;5011922;28;20045;-73
2023/09/05 08:38:08;;;;;;;2.03;0.70;;;24.40;99.90;;;;;;5014248;28;20038;-73
2023/09/05 08:40:35;;;;;;;2.60;0.80;;;24.50;99.90;;;;;;4995959;28;20025;-73
2023/09/05 08:43:02;;;;;;;2.55;0.80;;;24.60;99.90;;;;;;5028126;28;20037;-72
2023/09/05 08:45:30;;;;;;;2.85;0.85;;;24.70;99.90;;;;;;4979147;28;20489;-73
2023/09/05 08:47:57;;;;;;;1.40;0.93;;;24.80;99.90;;;;;;4980173;28;20362;-73
2023/09/05 08:50:26;;;;;;;8.05;1.23;;;25.00;99.90;;;;;;5011248;28;20346;-73
2023/09/05 08:52:55;;;;;;;2.22;0.90;;;25.10;99.90;;;;;;5028337;28;20032;-73
2023/09/05 08:55:22;;;;;;;2.65;0.75;;;25.20;99.90;;;;;;4995535;28;20045;-73
2023/09/05 08:57:49;;;;;;;1.80;0.75;;;25.30;99.90;;;;;;4995887;28;20044;-72
2023/09/05 09:00:21;;;;;;;1.60;0.90;;;25.30;99.90;;;;;;4995031;28;20048;-73
2023/09/05 09:02:48;;;;;;;1.20;0.73;;;25.40;99.90;;;;;;4994691;28;20034;-72
2023/09/05 09:05:14;;;;;;;3.15;1.30;;;25.40;99.90;;;;;;5011729;28;20042;-73
2023/09/05 09:07:41;;;;;;;2.83;0.80;;;25.50;99.90;;;;;;4995363;28;20042;-73
2023/09/05 09:10:20;;;;;;;1.83;0.90;;;25.50;99.90;;;;;;4979298;28;20037;-72
2023/09/05 09:12:56;;;;;;;2.92;0.88;;;25.60;99.90;;;;;;5027788;28;20038;-73
2023/09/05 09:15:26;;;;;;;2.05;0.98;;;25.70;99.90;;;;;;4996499;28;20036;-72
2023/09/05 09:17:54;;;;;;;2.95;1.02;;;25.70;99.80;;;;;;4996782;28;20397;-73
2023/09/05 09:20:23;;;;;;;2.20;0.93;;;25.80;99.80;;;;;;4979973;28;20415;-73
2023/09/05 09:22:50;;;;;;;1.55;0.70;;;25.90;99.60;;;;;;4983166;28;20049;-72
2023/09/05 09:25:20;;;;;;;2.20;0.90;;;25.90;99.60;;;;;;5015217;28;20536;-73
2023/09/05 09:27:51;;;;;;;1.75;0.80;;;26.00;99.30;;;;;;5011892;28;20033;-72
2023/09/05 09:30:25;;;;;;;2.25;0.70;;;26.10;99.10;;;;;;4998592;28;20034;-72
2023/09/05 09:32:53;;;;;;;1.80;0.77;;;26.20;98.90;;;;;;4985979;28;20042;-73
2023/09/05 09:35:21;;;;;;;1.88;0.70;;;26.30;98.90;;;;;;4982426;28;20444;-72
2023/09/05 09:37:49;;;;;;;2.28;0.82;;;26.40;98.80;;;;;;5015237;28;20396;-72
2023/09/05 09:40:16;;;;;;;2.22;0.82;;;26.40;98.60;;;;;;5027181;28;20033;-72
2023/09/05 09:42:49;;;;;;;2.63;0.90;;;26.60;98.60;;;;;;4999651;28;20036;-72
2023/09/05 09:45:17;;;;;;;1.73;0.80;;;26.60;98.50;;;;;;5028084;28;20505;-72
2023/09/05 09:47:49;;;;;;;2.08;0.80;;;26.80;98.50;;;;;;4998525;28;20038;-72
2023/09/05 09:50:19;;;;;;;2.00;0.80;;;26.90;98.50;;;;;;5010093;28;20064;-72
2023/09/05 09:52:49;;;;;;;1.75;0.95;;;27.00;98.30;;;;;;5030520;28;20034;-73
2023/09/05 09:55:17;;;;;;;7.75;1.00;;;27.20;98.30;;;;;;5014816;28;20332;-74
2023/09/05 09:57:55;;;;;;;2.25;0.80;;;27.40;98.20;;;;;;5027966;28;20113;-72
2023/09/05 10:00:24;;;;;;;2.65;0.75;;;27.50;97.90;;;;;;5014184;28;20041;-73
2023/09/05 10:02:53;;;;;;;1.10;0.63;;;27.70;97.80;;;;;;4997628;28;20029;-73
2023/09/05 10:05:23;;;;;;;1.60;0.90;;;27.70;97.60;;;;;;4997825;28;20401;-72
2023/09/05 10:07:52;;;;;;;1.50;0.80;;;27.90;97.60;;;;;;5014966;28;20053;-73
2023/09/05 10:10:20;;;;;;;1.70;0.70;;;28.10;97.50;;;;;;5014654;28;20038;-73
2023/09/05 10:12:46;;;;;;;3.80;1.15;;;28.20;97.30;;;;;;4998614;28;20034;-72
2023/09/05 10:15:14;;;;;;;2.08;0.80;;;28.40;97.00;;;;;;4998589;28;20037;-72
2023/09/05 10:17:42;;;;;;;1.95;0.70;;;28.50;97.00;;;;;;4999051;28;21520;-72
2023/09/05 10:20:14;;;;;;;2.08;0.80;;;28.70;96.80;;;;;;5012436;28;20492;-72
2023/09/05 10:22:44;;;;;;;2.03;0.80;;;28.90;96.50;;;;;;4998985;28;20034;-72
2023/09/05 10:25:13;;;;;;;2.42;0.80;;;29.20;96.20;;;;;;4997875;28;20386;-72
2023/09/05 10:27:40;;;;;;;3.10;0.80;;;29.60;95.90;;;;;;4999322;28;20053;-72
2023/09/05 10:30:10;;;;;;;2.28;0.80;;;29.90;95.30;;;;;;4997927;28;20026;-72
2023/09/05 10:32:41;;;;;;;2.03;0.75;;;30.30;94.90;;;;;;5030062;28;20037;-73
2023/09/05 10:35:08;;;;;;;1.63;0.80;;;30.50;94.20;;;;;;4983140;28;20052;-73
2023/09/05 10:37:34;;;;;;;2.45;1.15;;;30.80;94.00;;;;;;5015467;28;20037;-73
2023/09/05 10:40:10;;;;;;;2.60;0.70;;;31.20;93.70;;;;;;5031220;28;20386;-74
2023/09/05 10:42:55;;;;;;;1.73;0.70;;;31.70;93.10;;;;;;5013458;28;20029;-73
2023/09/05 10:45:22;;;;;;;1.60;0.68;;;32.10;92.00;;;;;;4982305;28;20059;-72
2023/09/05 10:47:49;;;;;;;1.35;0.70;;;32.30;91.20;;;;;;4998824;28;20034;-72
2023/09/05 10:50:21;;;;;;;2.42;0.75;;;32.60;90.50;;;;;;4997970;28;20041;-73
2023/09/05 10:52:51;;;;;;;3.25;0.70;;;32.80;89.40;;;;;;5030861;28;20036;-72
2023/09/05 10:55:29;;;;;;;1.67;0.70;;;33.00;88.20;;;;;;4998610;28;20030;-72
2023/09/05 10:57:59;;;;;;;1.40;0.60;;;33.40;86.70;;;;;;4997412;28;20053;-72
2023/09/05 11:00:35;;;;;;;1.75;0.82;;;33.70;86.10;;;;;;4998069;28;20041;-72
2023/09/05 11:03:15;;;;;;;2.10;0.80;;;34.00;84.40;;;;;;4995951;28;20397;-72
2023/09/05 11:05:42;;;;;;;1.45;0.60;;;34.40;83.10;;;;;;4997224;28;20053;-74
2023/09/05 11:08:22;;;;;;;2.75;0.70;;;34.70;82.50;;;;;;4997566;28;20038;-73
2023/09/05 11:10:53;;;;;;;2.97;0.70;;;35.10;81.10;;;;;;5014325;28;20025;-74
2023/09/05 11:13:19;;;;;;;0.95;0.50;;;35.50;79.10;;;;;;4980572;28;20034;-74
2023/09/05 11:15:45;;;;;;;0.82;0.60;;;35.70;77.70;;;;;;5013732;28;20026;-73
2023/09/05 11:18:14;;;;;;;2.35;0.60;;;35.90;76.80;;;;;;5031247;28;20034;-73
2023/09/05 11:20:42;;;;;;;2.38;0.80;;;36.10;75.60;;;;;;4997133;28;20045;-72
2023/09/05 11:23:12;;;;;;;2.35;0.60;;;36.30;74.10;;;;;;4997028;28;20033;-73
2023/09/05 11:25:43;;;;;;;1.65;0.50;;;36.60;73.80;;;;;;5013197;28;20038;-74
2023/09/05 11:28:11;;;;;;;4.07;0.85;;;37.00;72.90;;;;;;4998671;28;20405;-74
2023/09/05 11:30:40;;;;;;;2.88;2.22;;;37.30;71.20;;;;;;5012870;28;20433;-74
2023/09/05 11:33:15;;;;;;;5.13;3.40;;;37.50;70.20;;;;;;5029211;28;20030;-76
2023/09/05 11:35:45;;;;;;;2.47;1.95;;;37.80;69.00;;;;;;5025931;28;20038;-75
2023/09/05 11:38:13;;;;;;;1.08;0.73;;;38.00;67.70;;;;;;5009693;28;20065;-73
2023/09/05 11:40:41;;;;;;;1.65;0.70;;;38.30;67.40;;;;;;4979426;28;20034;-73
2023/09/05 11:43:11;;;;;;;2.08;0.70;;;38.50;66.40;;;;;;5010967;28;20042;-72
2023/09/05 11:45:42;;;;;;;1.35;0.60;;;38.60;65.30;;;;;;4996589;28;20033;-72
2023/09/05 11:48:12;;;;;;;2.30;0.75;;;38.80;65.30;;;;;;5027796;28;20421;-72
2023/09/05 11:50:40;;;;;;;1.65;0.57;;;39.00;64.30;;;;;;4995680;28;20041;-73
2023/09/05 11:53:11;;;;;;;2.13;0.60;;;39.30;63.30;;;;;;4997767;28;20030;-72
2023/09/05 11:55:38;;;;;;;;;;;39.40;62.10;;;;;;5013472;28;20029;-71
2023/09/05 11:58:07;;;;;;;1.27;0.50;;;39.60;62.20;;;;;;4980063;28;19917;-73
2023/09/05 12:00:42;;;;;;;1.67;0.80;;;39.90;61.30;;;;;;4996675;28;20029;-72
2023/09/05 12:03:09;;;;;;;1.65;1.02;;;40.10;60.10;;;;;;4994459;28;20029;-72
2023/09/05 12:05:37;;;;;;;2.63;0.60;;;40.20;59.70;;;;;;5028834;28;20485;-72
2023/09/05 12:08:07;;;;;;;2.55;0.50;;;40.30;58.80;;;;;;4996472;28;20041;-73
2023/09/05 12:10:52;;;;;;;1.52;0.50;;;40.60;58.30;;;;;;4995536;28;20799;-73
2023/09/05 12:13:19;;;;;;;1.50;0.50;;;40.80;57.70;;;;;;5012635;28;20045;-71
2023/09/05 12:15:46;;;;;;;2.75;0.50;;;41.00;56.80;;;;;;4997509;28;20026;-72
2023/09/05 12:18:22;;;;;;;2.17;0.50;;;41.20;56.30;;;;;;4979352;28;20042;-72
2023/09/05 12:20:56;;;;;;;0.80;0.50;;;41.50;55.40;;;;;;4994794;28;20026;-72
2023/09/05 12:23:24;;;;;;;1.40;0.68;;;41.60;55.20;;;;;;4994995;28;20041;-72
2023/09/05 12:25:57;;;;;;;0.90;0.50;;;42.00;54.90;;;;;;4995888;28;20041;-72
2023/09/05 12:28:26;;;;;;;3.33;0.60;;;42.20;54.20;;;;;;4996483;28;20053;-72
2023/09/05 12:31:05;;;;;;;1.15;0.52;;;42.30;53.30;;;;;;5028011;28;20033;-72
2023/09/05 12:33:31;;;;;;;0.93;0.40;;;42.40;53.90;;;;;;4995040;28;20513;-72
2023/09/05 12:35:58;;;;;;;1.95;0.50;;;42.60;52.50;;;;;;4979324;28;20083;-73
2023/09/05 12:38:24;;;;;;;1.30;0.50;;;42.70;52.00;;;;;;4979087;28;20041;-72
2023/09/05 12:40:50;;;;;;;1.30;0.40;;;42.90;51.90;;;;;;4995280;28;20485;-73
2023/09/05 12:43:17;;;;;;;1.55;0.50;;;43.20;51.70;;;;;;5028681;28;20030;-72
2023/09/05 12:45:43;;;;;;;1.23;0.50;;;43.40;51.40;;;;;;5010292;28;20469;-72
2023/09/05 12:48:10;;;;;;;2.55;0.50;;;43.50;50.40;;;;;;5013290;28;20029;-72
2023/09/05 12:50:37;;;;;;;2.17;0.50;;;43.70;50.40;;;;;;5010448;28;20044;-73
2023/09/05 12:53:09;;;;;;;0.95;0.47;;;43.80;49.50;;;;;;4997792;28;20370;-72